Shinkai Maru — JJ4012 — position and weather

sailwx.info

Track history (hours):
 
Tides and Currents Weather Stations Pressure Air Temp Water Temp Dewpoint Dewpoint Depression Visibility Wind Speed Wind Dir Waves Ship Positions

Shinkai Maru

Last reported at 2018-Feb-20 01:28 UTC. Time now 2018-Feb-20 01:36 UTC.
Position N 35°09' E 138°41'.

Length 76 m; draft 4.1 m.

Type: Cargo ship. MMSI: 431301346.

Date/timePositionNaut miles runAvg speedWind from/ knotsBaromVisibWave heightAir tempDewpointWater temp
2018-Feb-20 01:28N 35°09' E 138°41'0 0.0
2018-Feb-20 00:58N 35°09' E 138°41'0 0.0
2018-Feb-20 00:28N 35°09' E 138°41'0 0.0
2018-Feb-19 23:58N 35°09' E 138°41'0 0.0
2018-Feb-19 23:28N 35°09' E 138°41'1 1.2
2018-Feb-19 23:00N 35°08' E 138°42'5 9.1
2018-Feb-19 22:30N 35°05' E 138°38'510.2
2018-Feb-19 22:00N 35°03' E 138°32'0 0.1
2018-Feb-19 21:24N 35°03' E 138°32'0 0.0
2018-Feb-19 21:00N 35°03' E 138°32'0 0.0
2018-Feb-19 20:30N 35°03' E 138°32'0 0.0
2018-Feb-19 19:57N 35°03' E 138°32'0 0.0
2018-Feb-19 19:30N 35°03' E 138°32'0 0.0
2018-Feb-19 19:00N 35°03' E 138°32'0 0.0
2018-Feb-19 18:30N 35°03' E 138°32'0 0.0
2018-Feb-19 18:00N 35°03' E 138°32'0 0.1
2018-Feb-19 17:30N 35°03' E 138°32'0 0.0
2018-Feb-19 17:00N 35°03' E 138°32'0 0.0
2018-Feb-19 16:30N 35°03' E 138°32'0 0.0
2018-Feb-19 16:00N 35°03' E 138°32'0 0.0
2018-Feb-19 15:30N 35°03' E 138°32'0 0.0
2018-Feb-19 15:00N 35°03' E 138°32'0 0.0
2018-Feb-19 14:30N 35°03' E 138°32'0 0.0
2018-Feb-19 14:00N 35°03' E 138°32'0 0.0
2018-Feb-19 13:30N 35°03' E 138°32'0 0.0
2018-Feb-19 13:00N 35°03' E 138°32'0 0.0
2018-Feb-19 12:30N 35°03' E 138°32'0 0.0
2018-Feb-19 12:00N 35°03' E 138°32'0 0.0
2018-Feb-19 11:30N 35°03' E 138°32'0 0.0
2018-Feb-19 11:00N 35°03' E 138°32'0 0.0
2018-Feb-19 10:30N 35°03' E 138°32'0 0.0
2018-Feb-19 10:00N 35°03' E 138°32'0 0.0
2018-Feb-19 09:30N 35°03' E 138°32'0 0.1
2018-Feb-19 09:00N 35°03' E 138°32'0 0.0
2018-Feb-19 08:30N 35°03' E 138°32'3 6.2
2018-Feb-19 08:00N 34°60' E 138°33'611.8
2018-Feb-19 07:30N 34°55' E 138°30'612.0
2018-Feb-19 06:58N 34°49' E 138°26'612.3
2018-Feb-19 06:30N 34°44' E 138°23'712.1
2018-Feb-19 05:56N 34°38' E 138°19'16910.1
2018-Feb-18 13:13N 33°51' E 135°03'312.4
2018-Feb-18 13:00N 33°53' E 135°01'612.2
2018-Feb-18 12:31N 33°59' E 134°60'612.1
2018-Feb-18 12:01N 34°05' E 134°59'612.2
2018-Feb-18 11:30N 34°11' E 134°59'611.9
2018-Feb-18 11:00N 34°17' E 134°59'611.5
2018-Feb-18 10:31N 34°23' E 134°60'612.0
2018-Feb-18 10:00N 34°29' E 135°01'611.4
2018-Feb-18 09:31N 34°34' E 135°03'5 9.9
2018-Feb-18 09:00N 34°36' E 134°57'612.9
2018-Feb-18 08:31N 34°39' E 134°50'5 0.3
2018-Feb-17 18:25N 34°44' E 134°49'3 6.3
2018-Feb-17 18:00N 34°41' E 134°49'2 4.5
2018-Feb-17 17:30N 34°43' E 134°51'0 0.0
2018-Feb-17 17:00N 34°43' E 134°51'0 0.0
2018-Feb-17 16:30N 34°43' E 134°51'0 0.0
2018-Feb-17 16:00N 34°43' E 134°51'0 0.0
2018-Feb-17 15:30N 34°43' E 134°51'0 0.0
2018-Feb-17 14:54N 34°43' E 134°51'0 0.0
2018-Feb-17 14:30N 34°43' E 134°51'0 0.0
2018-Feb-17 14:00N 34°43' E 134°51'0 0.0
2018-Feb-17 13:30N 34°43' E 134°51'0 0.0
2018-Feb-17 13:00N 34°43' E 134°51'0 0.0
2018-Feb-17 12:24N 34°43' E 134°51'0 0.0
2018-Feb-17 12:00N 34°43' E 134°51'0 0.0
2018-Feb-17 11:30N 34°43' E 134°51'0 0.0
2018-Feb-17 10:54N 34°43' E 134°51'0 0.0
2018-Feb-17 10:30N 34°43' E 134°51'0 0.0
2018-Feb-17 10:00N 34°43' E 134°51'0 0.0
2018-Feb-17 09:30N 34°43' E 134°51'0 0.0
2018-Feb-17 08:48N 34°43' E 134°51'0 0.0
2018-Feb-17 08:24N 34°43' E 134°51'0 0.0
2018-Feb-17 08:00N 34°43' E 134°51'0 0.0
2018-Feb-17 07:30N 34°43' E 134°51'0 0.0
2018-Feb-17 06:54N 34°43' E 134°51'0 0.0
2018-Feb-17 06:30N 34°43' E 134°51'0 0.0
2018-Feb-17 06:00N 34°43' E 134°51'0 0.0
2018-Feb-17 05:30N 34°43' E 134°51'0 0.0
2018-Feb-17 05:00N 34°43' E 134°51'0 0.0
2018-Feb-17 04:24N 34°43' E 134°51'0 0.0
2018-Feb-17 04:00N 34°43' E 134°51'0 0.0
2018-Feb-17 03:30N 34°43' E 134°51'0 0.0
2018-Feb-17 02:54N 34°43' E 134°51'0 0.0
2018-Feb-17 02:30N 34°43' E 134°51'0 0.0
2018-Feb-17 02:00N 34°43' E 134°51'0 0.0
2018-Feb-17 01:30N 34°43' E 134°51'0 0.0
2018-Feb-17 01:00N 34°43' E 134°51'0 0.0
2018-Feb-17 00:30N 34°43' E 134°51'0 0.0
2018-Feb-17 00:00N 34°43' E 134°51'0 0.0
2018-Feb-16 23:30N 34°43' E 134°51'0 0.0
2018-Feb-16 23:00N 34°43' E 134°51'0 0.0
2018-Feb-16 22:30N 34°43' E 134°51'0 0.0
2018-Feb-16 21:48N 34°43' E 134°51'0 0.0
2018-Feb-16 21:30N 34°43' E 134°51'0 0.0
2018-Feb-16 21:00N 34°43' E 134°51'0 0.0
2018-Feb-16 20:18N 34°43' E 134°51'0 0.0
2018-Feb-16 20:00N 34°43' E 134°51'0 0.0
2018-Feb-16 19:30N 34°43' E 134°51'0 0.0
2018-Feb-16 19:00N 34°43' E 134°51'0 0.0
2018-Feb-16 18:18N 34°43' E 134°51'0 0.0
2018-Feb-16 17:54N 34°43' E 134°51'0 0.0
2018-Feb-16 17:24N 34°43' E 134°51'0 0.0
2018-Feb-16 17:00N 34°43' E 134°51'0 0.0
2018-Feb-16 16:18N 34°43' E 134°51'0 0.0
2018-Feb-16 15:36N 34°43' E 134°51'0 0.0
2018-Feb-16 15:18N 34°43' E 134°51'0 0.0
2018-Feb-16 15:00N 34°43' E 134°51'0 0.0
2018-Feb-16 14:30N 34°43' E 134°51'0 0.0
2018-Feb-16 14:00N 34°43' E 134°51'0 0.0
2018-Feb-16 13:30N 34°43' E 134°51'0 0.0
2018-Feb-16 13:00N 34°43' E 134°51'0 0.0
2018-Feb-16 12:24N 34°43' E 134°51'0 0.0
2018-Feb-16 11:51N 34°43' E 134°51'1 2.4
2018-Feb-16 11:30N 34°42' E 134°50'510.5
2018-Feb-16 11:00N 34°38' E 134°53'713.9
2018-Feb-16 10:30N 34°37' E 135°02'510.7
2018-Feb-16 10:00N 34°32' E 135°04'612.7
2018-Feb-16 09:30N 34°26' E 135°02'612.4
2018-Feb-16 09:00N 34°20' E 135°00'611.9
2018-Feb-16 08:30N 34°14' E 134°60'611.8
2018-Feb-16 08:00N 34°08' E 135°00'611.8
2018-Feb-16 07:30N 34°02' E 135°01'611.6
2018-Feb-16 07:00N 33°57' E 135°02'611.0
2018-Feb-16 06:30N 33°51' E 135°04'16410.2
2018-Feb-15 14:31N 34°33' E 138°15'6 9.8
2018-Feb-15 13:55N 34°33' E 138°23'510.0
2018-Feb-15 13:28N 34°33' E 138°28'5 9.9
2018-Feb-15 13:00N 34°34' E 138°34'610.0
2018-Feb-15 12:25N 34°34' E 138°40'5 9.8
2018-Feb-15 11:58N 34°35' E 138°46'5 9.5
2018-Feb-15 11:27N 34°35' E 138°52'4 8.2
2018-Feb-15 11:00N 34°36' E 138°56'6 9.0
2018-Feb-15 10:21N 34°40' E 139°01'410.7
2018-Feb-15 10:01N 34°43' E 139°04'610.7
2018-Feb-15 09:25N 34°48' E 139°08'510.0
2018-Feb-15 08:57N 34°51' E 139°12'4 9.8
2018-Feb-15 08:30N 34°53' E 139°17'6 8.8
2018-Feb-15 07:49N 34°55' E 139°24'4 9.5
2018-Feb-15 07:23N 34°58' E 139°28'610.2
2018-Feb-15 06:49N 35°02' E 139°33'511.5
2018-Feb-15 06:25N 35°05' E 139°37'512.3
2018-Feb-15 05:59N 35°08' E 139°42'611.9
2018-Feb-15 05:30N 35°13' E 139°46'611.2
2018-Feb-15 05:00N 35°18' E 139°44'611.2
2018-Feb-15 04:30N 35°23' E 139°43'612.1
2018-Feb-15 04:00N 35°27' E 139°48'712.4
2018-Feb-15 03:28N 35°32' E 139°53'612.4
2018-Feb-15 02:57N 35°38' E 139°58'2 0.1
2018-Feb-14 05:16N 35°40' E 139°57'310.7
2018-Feb-14 05:00N 35°37' E 139°58'912.3
2018-Feb-14 04:19N 35°30' E 139°53'412.7
2018-Feb-14 04:00N 35°27' E 139°49'612.4
2018-Feb-14 03:30N 35°22' E 139°45'611.6
2018-Feb-14 03:00N 35°16' E 139°46'612.0
2018-Feb-14 02:30N 35°10' E 139°47'611.9
2018-Feb-14 02:00N 35°05' E 139°43'612.3
2018-Feb-14 01:30N 35°01' E 139°37'2014.0
2018-Feb-14 00:04N 34°50' E 139°17'114.1
2018-Feb-14 00:00N 34°49' E 139°16'1113.6
2018-Feb-13 23:11N 34°42' E 139°06'213.4
2018-Feb-13 23:00N 34°40' E 139°04'612.1
2018-Feb-13 22:28N 34°36' E 138°58'612.1
2018-Feb-13 21:56N 34°34' E 138°50'612.6
2018-Feb-13 21:26N 34°33' E 138°43'911.9
2018-Feb-13 20:41N 34°32' E 138°32'411.6
2018-Feb-13 20:22N 34°31' E 138°28'17510.6
2018-Feb-13 03:54N 33°53' E 135°01'512.9
2018-Feb-13 03:30N 33°58' E 135°01'612.6
2018-Feb-13 03:00N 34°05' E 134°60'612.7
2018-Feb-13 02:30N 34°11' E 134°59'612.6
2018-Feb-13 02:00N 34°17' E 134°58'611.4
2018-Feb-13 01:30N 34°23' E 135°01'612.1
2018-Feb-13 01:00N 34°28' E 135°04'5 9.5
2018-Feb-13 00:30N 34°32' E 135°08'510.6
2018-Feb-13 00:00N 34°37' E 135°10'3 6.0
2018-Feb-12 23:29N 34°40' E 135°12'0 0.0
2018-Feb-12 22:59N 34°40' E 135°12'0 0.0
2018-Feb-12 22:29N 34°40' E 135°12'0 0.0
2018-Feb-12 21:59N 34°40' E 135°12'0 0.0
2018-Feb-12 21:29N 34°40' E 135°12'0 0.1
2018-Feb-12 20:59N 34°40' E 135°12'0 0.1
2018-Feb-12 20:29N 34°40' E 135°12'0 0.1
2018-Feb-12 19:59N 34°40' E 135°12'0 0.1
2018-Feb-12 19:26N 34°40' E 135°12'0 0.1
2018-Feb-12 18:59N 34°40' E 135°12'0 0.0
2018-Feb-12 18:29N 34°40' E 135°12'0 0.0
2018-Feb-12 17:59N 34°40' E 135°12'0 0.1
2018-Feb-12 17:29N 34°40' E 135°12'0 0.0
2018-Feb-12 16:59N 34°40' E 135°12'0 0.0
2018-Feb-12 16:29N 34°40' E 135°12'0 0.0
2018-Feb-12 15:59N 34°40' E 135°12'0 0.0
2018-Feb-12 15:29N 34°40' E 135°12'0 0.0
2018-Feb-12 14:59N 34°40' E 135°12'0 0.0
2018-Feb-12 14:29N 34°40' E 135°12'0 0.0
2018-Feb-12 13:59N 34°40' E 135°12'0 0.0
2018-Feb-12 13:29N 34°40' E 135°12'0 0.0
2018-Feb-12 12:59N 34°40' E 135°12'0 0.0
2018-Feb-12 12:29N 34°40' E 135°12'0 0.0
2018-Feb-12 11:59N 34°40' E 135°12'0 0.0
2018-Feb-12 11:29N 34°40' E 135°12'0 0.8
2018-Feb-12 11:00N 34°39' E 135°11'510.9
2018-Feb-12 10:30N 34°36' E 135°07'510.3
2018-Feb-12 10:00N 34°37' E 135°01'511.0
2018-Feb-12 09:30N 34°37' E 134°54'611.1
2018-Feb-12 09:01N 34°40' E 134°49'3 0.2
2018-Feb-11 17:24N 34°44' E 134°49'3 8.1
2018-Feb-11 17:00N 34°40' E 134°48'510.8
2018-Feb-11 16:30N 34°38' E 134°54'510.5
2018-Feb-11 16:00N 34°38' E 135°00'4 8.7
2018-Feb-11 15:31N 34°35' E 135°05'510.3
2018-Feb-11 15:01N 34°30' E 135°04'611.3
2018-Feb-11 14:30N 34°25' E 135°02'611.2
2018-Feb-11 14:00N 34°19' E 135°00'510.1
2018-Feb-11 13:31N 34°14' E 134°59'510.6
2018-Feb-11 13:00N 34°09' E 135°00'510.9
2018-Feb-11 12:31N 34°04' E 135°01'510.3
2018-Feb-11 12:00N 33°59' E 135°02'5 9.6
2018-Feb-11 11:31N 33°54' E 135°02'163 8.7
2018-Feb-10 16:52N 34°34' E 138°14'812.0
2018-Feb-10 16:10N 34°33' E 138°24'312.4
2018-Feb-10 15:58N 34°33' E 138°27'712.6
2018-Feb-10 15:25N 34°34' E 138°35'812.5
2018-Feb-10 14:48N 34°35' E 138°45'312.0
2018-Feb-10 14:30N 34°35' E 138°49'611.1
2018-Feb-10 14:00N 34°36' E 138°55'711.6
2018-Feb-10 13:25N 34°40' E 139°02'711.1
2018-Feb-10 12:47N 34°45' E 139°08'311.3
2018-Feb-10 12:30N 34°48' E 139°10'711.5
2018-Feb-10 11:56N 34°52' E 139°16'510.7
2018-Feb-10 11:26N 34°55' E 139°21'510.7
2018-Feb-10 10:56N 34°59' E 139°26'511.0
2018-Feb-10 10:30N 35°02' E 139°31'611.7
2018-Feb-10 09:59N 35°05' E 139°37'511.0
2018-Feb-10 09:30N 35°08' E 139°42'611.2
2018-Feb-10 09:00N 35°12' E 139°46'611.9
2018-Feb-10 08:30N 35°18' E 139°44'611.4
2018-Feb-10 08:00N 35°24' E 139°42'611.5
2018-Feb-10 07:31N 35°27' E 139°47'611.5
2018-Feb-10 07:00N 35°31' E 139°53'812.1
2018-Feb-10 06:20N 35°38' E 139°58'  
Track history (hours):
 
Tides and Currents Weather Stations Pressure Air Temp Water Temp Dewpoint Dewpoint Depression Visibility Wind Speed Wind Dir Waves Ship Positions

Shinkai Maru

Last reported at 2018-Feb-20 01:28 UTC. Time now 2018-Feb-20 01:36 UTC.
Position N 35°09' E 138°41'.

Length 76 m; draft 4.1 m.

Type: Cargo ship. MMSI: 431301346.

Date/timePositionNaut miles runAvg speedWind from/ knotsBaromVisibWave heightAir tempDewpointWater temp
2018-Feb-20 01:28N 35°09' E 138°41'0 0.0
2018-Feb-20 00:58N 35°09' E 138°41'0 0.0
2018-Feb-20 00:28N 35°09' E 138°41'0 0.0
2018-Feb-19 23:58N 35°09' E 138°41'0 0.0
2018-Feb-19 23:28N 35°09' E 138°41'1 1.2
2018-Feb-19 23:00N 35°08' E 138°42'5 9.1
2018-Feb-19 22:30N 35°05' E 138°38'510.2
2018-Feb-19 22:00N 35°03' E 138°32'0 0.1
2018-Feb-19 21:24N 35°03' E 138°32'0 0.0
2018-Feb-19 21:00N 35°03' E 138°32'0 0.0
2018-Feb-19 20:30N 35°03' E 138°32'0 0.0
2018-Feb-19 19:57N 35°03' E 138°32'0 0.0
2018-Feb-19 19:30N 35°03' E 138°32'0 0.0
2018-Feb-19 19:00N 35°03' E 138°32'0 0.0
2018-Feb-19 18:30N 35°03' E 138°32'0 0.0
2018-Feb-19 18:00N 35°03' E 138°32'0 0.1
2018-Feb-19 17:30N 35°03' E 138°32'0 0.0
2018-Feb-19 17:00N 35°03' E 138°32'0 0.0
2018-Feb-19 16:30N 35°03' E 138°32'0 0.0
2018-Feb-19 16:00N 35°03' E 138°32'0 0.0
2018-Feb-19 15:30N 35°03' E 138°32'0 0.0
2018-Feb-19 15:00N 35°03' E 138°32'0 0.0
2018-Feb-19 14:30N 35°03' E 138°32'0 0.0
2018-Feb-19 14:00N 35°03' E 138°32'0 0.0
2018-Feb-19 13:30N 35°03' E 138°32'0 0.0
2018-Feb-19 13:00N 35°03' E 138°32'0 0.0
2018-Feb-19 12:30N 35°03' E 138°32'0 0.0
2018-Feb-19 12:00N 35°03' E 138°32'0 0.0
2018-Feb-19 11:30N 35°03' E 138°32'0 0.0
2018-Feb-19 11:00N 35°03' E 138°32'0 0.0
2018-Feb-19 10:30N 35°03' E 138°32'0 0.0
2018-Feb-19 10:00N 35°03' E 138°32'0 0.0
2018-Feb-19 09:30N 35°03' E 138°32'0 0.1
2018-Feb-19 09:00N 35°03' E 138°32'0 0.0
2018-Feb-19 08:30N 35°03' E 138°32'3 6.2
2018-Feb-19 08:00N 34°60' E 138°33'611.8
2018-Feb-19 07:30N 34°55' E 138°30'612.0
2018-Feb-19 06:58N 34°49' E 138°26'612.3
2018-Feb-19 06:30N 34°44' E 138°23'712.1
2018-Feb-19 05:56N 34°38' E 138°19'16910.1
2018-Feb-18 13:13N 33°51' E 135°03'312.4
2018-Feb-18 13:00N 33°53' E 135°01'612.2
2018-Feb-18 12:31N 33°59' E 134°60'612.1
2018-Feb-18 12:01N 34°05' E 134°59'612.2
2018-Feb-18 11:30N 34°11' E 134°59'611.9
2018-Feb-18 11:00N 34°17' E 134°59'611.5
2018-Feb-18 10:31N 34°23' E 134°60'612.0
2018-Feb-18 10:00N 34°29' E 135°01'611.4
2018-Feb-18 09:31N 34°34' E 135°03'5 9.9
2018-Feb-18 09:00N 34°36' E 134°57'612.9
2018-Feb-18 08:31N 34°39' E 134°50'5 0.3
2018-Feb-17 18:25N 34°44' E 134°49'3 6.3
2018-Feb-17 18:00N 34°41' E 134°49'2 4.5
2018-Feb-17 17:30N 34°43' E 134°51'0 0.0
2018-Feb-17 17:00N 34°43' E 134°51'0 0.0
2018-Feb-17 16:30N 34°43' E 134°51'0 0.0
2018-Feb-17 16:00N 34°43' E 134°51'0 0.0
2018-Feb-17 15:30N 34°43' E 134°51'0 0.0
2018-Feb-17 14:54N 34°43' E 134°51'0 0.0
2018-Feb-17 14:30N 34°43' E 134°51'0 0.0
2018-Feb-17 14:00N 34°43' E 134°51'0 0.0
2018-Feb-17 13:30N 34°43' E 134°51'0 0.0
2018-Feb-17 13:00N 34°43' E 134°51'0 0.0
2018-Feb-17 12:24N 34°43' E 134°51'0 0.0
2018-Feb-17 12:00N 34°43' E 134°51'0 0.0
2018-Feb-17 11:30N 34°43' E 134°51'0 0.0
2018-Feb-17 10:54N 34°43' E 134°51'0 0.0
2018-Feb-17 10:30N 34°43' E 134°51'0 0.0
2018-Feb-17 10:00N 34°43' E 134°51'0 0.0
2018-Feb-17 09:30N 34°43' E 134°51'0 0.0
2018-Feb-17 08:48N 34°43' E 134°51'0 0.0
2018-Feb-17 08:24N 34°43' E 134°51'0 0.0
2018-Feb-17 08:00N 34°43' E 134°51'0 0.0
2018-Feb-17 07:30N 34°43' E 134°51'0 0.0
2018-Feb-17 06:54N 34°43' E 134°51'0 0.0
2018-Feb-17 06:30N 34°43' E 134°51'0 0.0
2018-Feb-17 06:00N 34°43' E 134°51'0 0.0
2018-Feb-17 05:30N 34°43' E 134°51'0 0.0
2018-Feb-17 05:00N 34°43' E 134°51'0 0.0
2018-Feb-17 04:24N 34°43' E 134°51'0 0.0
2018-Feb-17 04:00N 34°43' E 134°51'0 0.0
2018-Feb-17 03:30N 34°43' E 134°51'0 0.0
2018-Feb-17 02:54N 34°43' E 134°51'0 0.0
2018-Feb-17 02:30N 34°43' E 134°51'0 0.0
2018-Feb-17 02:00N 34°43' E 134°51'0 0.0
2018-Feb-17 01:30N 34°43' E 134°51'0 0.0
2018-Feb-17 01:00N 34°43' E 134°51'0 0.0
2018-Feb-17 00:30N 34°43' E 134°51'0 0.0
2018-Feb-17 00:00N 34°43' E 134°51'0 0.0
2018-Feb-16 23:30N 34°43' E 134°51'0 0.0
2018-Feb-16 23:00N 34°43' E 134°51'0 0.0
2018-Feb-16 22:30N 34°43' E 134°51'0 0.0
2018-Feb-16 21:48N 34°43' E 134°51'0 0.0
2018-Feb-16 21:30N 34°43' E 134°51'0 0.0
2018-Feb-16 21:00N 34°43' E 134°51'0 0.0
2018-Feb-16 20:18N 34°43' E 134°51'0 0.0
2018-Feb-16 20:00N 34°43' E 134°51'0 0.0
2018-Feb-16 19:30N 34°43' E 134°51'0 0.0
2018-Feb-16 19:00N 34°43' E 134°51'0 0.0
2018-Feb-16 18:18N 34°43' E 134°51'0 0.0
2018-Feb-16 17:54N 34°43' E 134°51'0 0.0
2018-Feb-16 17:24N 34°43' E 134°51'0 0.0
2018-Feb-16 17:00N 34°43' E 134°51'0 0.0
2018-Feb-16 16:18N 34°43' E 134°51'0 0.0
2018-Feb-16 15:36N 34°43' E 134°51'0 0.0
2018-Feb-16 15:18N 34°43' E 134°51'0 0.0
2018-Feb-16 15:00N 34°43' E 134°51'0 0.0
2018-Feb-16 14:30N 34°43' E 134°51'0 0.0
2018-Feb-16 14:00N 34°43' E 134°51'0 0.0
2018-Feb-16 13:30N 34°43' E 134°51'0 0.0
2018-Feb-16 13:00N 34°43' E 134°51'0 0.0
2018-Feb-16 12:24N 34°43' E 134°51'0 0.0
2018-Feb-16 11:51N 34°43' E 134°51'1 2.4
2018-Feb-16 11:30N 34°42' E 134°50'510.5
2018-Feb-16 11:00N 34°38' E 134°53'713.9
2018-Feb-16 10:30N 34°37' E 135°02'510.7
2018-Feb-16 10:00N 34°32' E 135°04'612.7
2018-Feb-16 09:30N 34°26' E 135°02'612.4
2018-Feb-16 09:00N 34°20' E 135°00'611.9
2018-Feb-16 08:30N 34°14' E 134°60'611.8
2018-Feb-16 08:00N 34°08' E 135°00'611.8
2018-Feb-16 07:30N 34°02' E 135°01'611.6
2018-Feb-16 07:00N 33°57' E 135°02'611.0
2018-Feb-16 06:30N 33°51' E 135°04'16410.2
2018-Feb-15 14:31N 34°33' E 138°15'6 9.8
2018-Feb-15 13:55N 34°33' E 138°23'510.0
2018-Feb-15 13:28N 34°33' E 138°28'5 9.9
2018-Feb-15 13:00N 34°34' E 138°34'610.0
2018-Feb-15 12:25N 34°34' E 138°40'5 9.8
2018-Feb-15 11:58N 34°35' E 138°46'5 9.5
2018-Feb-15 11:27N 34°35' E 138°52'4 8.2
2018-Feb-15 11:00N 34°36' E 138°56'6 9.0
2018-Feb-15 10:21N 34°40' E 139°01'410.7
2018-Feb-15 10:01N 34°43' E 139°04'610.7
2018-Feb-15 09:25N 34°48' E 139°08'510.0
2018-Feb-15 08:57N 34°51' E 139°12'4 9.8
2018-Feb-15 08:30N 34°53' E 139°17'6 8.8
2018-Feb-15 07:49N 34°55' E 139°24'4 9.5
2018-Feb-15 07:23N 34°58' E 139°28'610.2
2018-Feb-15 06:49N 35°02' E 139°33'511.5
2018-Feb-15 06:25N 35°05' E 139°37'512.3
2018-Feb-15 05:59N 35°08' E 139°42'611.9
2018-Feb-15 05:30N 35°13' E 139°46'611.2
2018-Feb-15 05:00N 35°18' E 139°44'611.2
2018-Feb-15 04:30N 35°23' E 139°43'612.1
2018-Feb-15 04:00N 35°27' E 139°48'712.4
2018-Feb-15 03:28N 35°32' E 139°53'612.4
2018-Feb-15 02:57N 35°38' E 139°58'2 0.1
2018-Feb-14 05:16N 35°40' E 139°57'310.7
2018-Feb-14 05:00N 35°37' E 139°58'912.3
2018-Feb-14 04:19N 35°30' E 139°53'412.7
2018-Feb-14 04:00N 35°27' E 139°49'612.4
2018-Feb-14 03:30N 35°22' E 139°45'611.6
2018-Feb-14 03:00N 35°16' E 139°46'612.0
2018-Feb-14 02:30N 35°10' E 139°47'611.9
2018-Feb-14 02:00N 35°05' E 139°43'612.3
2018-Feb-14 01:30N 35°01' E 139°37'2014.0
2018-Feb-14 00:04N 34°50' E 139°17'114.1
2018-Feb-14 00:00N 34°49' E 139°16'1113.6
2018-Feb-13 23:11N 34°42' E 139°06'213.4
2018-Feb-13 23:00N 34°40' E 139°04'612.1
2018-Feb-13 22:28N 34°36' E 138°58'612.1
2018-Feb-13 21:56N 34°34' E 138°50'612.6
2018-Feb-13 21:26N 34°33' E 138°43'911.9
2018-Feb-13 20:41N 34°32' E 138°32'411.6
2018-Feb-13 20:22N 34°31' E 138°28'17510.6
2018-Feb-13 03:54N 33°53' E 135°01'512.9
2018-Feb-13 03:30N 33°58' E 135°01'612.6
2018-Feb-13 03:00N 34°05' E 134°60'612.7
2018-Feb-13 02:30N 34°11' E 134°59'612.6
2018-Feb-13 02:00N 34°17' E 134°58'611.4
2018-Feb-13 01:30N 34°23' E 135°01'612.1
2018-Feb-13 01:00N 34°28' E 135°04'5 9.5
2018-Feb-13 00:30N 34°32' E 135°08'510.6
2018-Feb-13 00:00N 34°37' E 135°10'3 6.0
2018-Feb-12 23:29N 34°40' E 135°12'0 0.0
2018-Feb-12 22:59N 34°40' E 135°12'0 0.0
2018-Feb-12 22:29N 34°40' E 135°12'0 0.0
2018-Feb-12 21:59N 34°40' E 135°12'0 0.0
2018-Feb-12 21:29N 34°40' E 135°12'0 0.1
2018-Feb-12 20:59N 34°40' E 135°12'0 0.1
2018-Feb-12 20:29N 34°40' E 135°12'0 0.1
2018-Feb-12 19:59N 34°40' E 135°12'0 0.1
2018-Feb-12 19:26N 34°40' E 135°12'0 0.1
2018-Feb-12 18:59N 34°40' E 135°12'0 0.0
2018-Feb-12 18:29N 34°40' E 135°12'0 0.0
2018-Feb-12 17:59N 34°40' E 135°12'0 0.1
2018-Feb-12 17:29N 34°40' E 135°12'0 0.0
2018-Feb-12 16:59N 34°40' E 135°12'0 0.0
2018-Feb-12 16:29N 34°40' E 135°12'0 0.0
2018-Feb-12 15:59N 34°40' E 135°12'0 0.0
2018-Feb-12 15:29N 34°40' E 135°12'0 0.0
2018-Feb-12 14:59N 34°40' E 135°12'0 0.0
2018-Feb-12 14:29N 34°40' E 135°12'0 0.0
2018-Feb-12 13:59N 34°40' E 135°12'0 0.0
2018-Feb-12 13:29N 34°40' E 135°12'0 0.0
2018-Feb-12 12:59N 34°40' E 135°12'0 0.0
2018-Feb-12 12:29N 34°40' E 135°12'0 0.0
2018-Feb-12 11:59N 34°40' E 135°12'0 0.0
2018-Feb-12 11:29N 34°40' E 135°12'0 0.8
2018-Feb-12 11:00N 34°39' E 135°11'510.9
2018-Feb-12 10:30N 34°36' E 135°07'510.3
2018-Feb-12 10:00N 34°37' E 135°01'511.0
2018-Feb-12 09:30N 34°37' E 134°54'611.1
2018-Feb-12 09:01N 34°40' E 134°49'3 0.2
2018-Feb-11 17:24N 34°44' E 134°49'3 8.1
2018-Feb-11 17:00N 34°40' E 134°48'510.8
2018-Feb-11 16:30N 34°38' E 134°54'510.5
2018-Feb-11 16:00N 34°38' E 135°00'4 8.7
2018-Feb-11 15:31N 34°35' E 135°05'510.3
2018-Feb-11 15:01N 34°30' E 135°04'611.3
2018-Feb-11 14:30N 34°25' E 135°02'611.2
2018-Feb-11 14:00N 34°19' E 135°00'510.1
2018-Feb-11 13:31N 34°14' E 134°59'510.6
2018-Feb-11 13:00N 34°09' E 135°00'510.9
2018-Feb-11 12:31N 34°04' E 135°01'510.3
2018-Feb-11 12:00N 33°59' E 135°02'5 9.6
2018-Feb-11 11:31N 33°54' E 135°02'163 8.7
2018-Feb-10 16:52N 34°34' E 138°14'812.0
2018-Feb-10 16:10N 34°33' E 138°24'312.4
2018-Feb-10 15:58N 34°33' E 138°27'712.6
2018-Feb-10 15:25N 34°34' E 138°35'812.5
2018-Feb-10 14:48N 34°35' E 138°45'312.0
2018-Feb-10 14:30N 34°35' E 138°49'611.1
2018-Feb-10 14:00N 34°36' E 138°55'711.6
2018-Feb-10 13:25N 34°40' E 139°02'711.1
2018-Feb-10 12:47N 34°45' E 139°08'311.3
2018-Feb-10 12:30N 34°48' E 139°10'711.5
2018-Feb-10 11:56N 34°52' E 139°16'510.7
2018-Feb-10 11:26N 34°55' E 139°21'510.7
2018-Feb-10 10:56N 34°59' E 139°26'511.0
2018-Feb-10 10:30N 35°02' E 139°31'611.7
2018-Feb-10 09:59N 35°05' E 139°37'511.0
2018-Feb-10 09:30N 35°08' E 139°42'611.2
2018-Feb-10 09:00N 35°12' E 139°46'611.9
2018-Feb-10 08:30N 35°18' E 139°44'611.4
2018-Feb-10 08:00N 35°24' E 139°42'611.5
2018-Feb-10 07:31N 35°27' E 139°47'611.5
2018-Feb-10 07:00N 35°31' E 139°53'812.1
2018-Feb-10 06:20N 35°38' E 139°58'  

Dump ship's entire track history